Time;durP1;ratioP1;P1;durP2;ratioP2;P2;SDS_P1;SDS_P2;PMS_P1;PMS_P2;Temp;Humidity;BMP_temperature;BMP_pressure;BME280_temperature;BME280_humidity;BME280_pressure;Samples;Min_cycle;Max_cycle;Signal;HPM_P1;HPM_P2
2022/04/30 00:02:25;;;;;;;;;;;11.30;99.90;;;;;;5045867;28;20070;-73
2022/04/30 00:04:52;;;;;;;;;;;11.20;99.90;;;;;;5040358;28;19929;-73
2022/04/30 00:07:19;;;;;;;;;;;11.20;99.90;;;;;;5040975;28;20547;-73
2022/04/30 00:09:46;;;;;;;;;;;11.20;99.90;;;;;;5039306;28;19933;-73
2022/04/30 00:12:15;;;;;;;;;;;11.20;99.90;;;;;;5040759;28;20311;-73
2022/04/30 00:14:41;;;;;;;;;;;11.10;99.90;;;;;;5045895;28;20274;-73
2022/04/30 00:17:08;;;;;;;;;;;11.10;99.90;;;;;;5042391;28;19924;-72
2022/04/30 00:19:34;;;;;;;;;;;11.00;99.90;;;;;;5045186;28;19928;-74
2022/04/30 00:22:01;;;;;;;;;;;11.00;99.90;;;;;;5046982;28;19925;-73
2022/04/30 00:24:28;;;;;;;;;;;11.00;99.90;;;;;;5040211;28;20007;-73
2022/04/30 00:26:56;;;;;;;;;;;11.00;99.90;;;;;;5037741;28;19925;-73
2022/04/30 00:29:23;;;;;;;;;;;10.90;99.90;;;;;;5044266;28;19996;-72
2022/04/30 00:31:50;;;;;;;;;;;11.00;99.90;;;;;;5043925;28;20335;-73
2022/04/30 00:34:17;;;;;;;;;;;10.90;99.90;;;;;;5041333;28;20020;-73
2022/04/30 00:36:43;;;;;;;;;;;10.90;99.90;;;;;;5044799;28;19924;-73
2022/04/30 00:39:10;;;;;;;;;;;10.80;99.90;;;;;;5034643;28;20345;-73
2022/04/30 00:41:41;;;;;;;;;;;10.80;99.90;;;;;;5050541;28;19928;-73
2022/04/30 00:44:07;;;;;;;;;;;10.80;99.90;;;;;;5048716;28;19932;-73
2022/04/30 00:46:35;;;;;;;;;;;10.80;99.90;;;;;;5043454;28;20055;-72
2022/04/30 00:49:02;;;;;;;;;;;10.70;99.90;;;;;;5046289;28;19948;-73
2022/04/30 00:51:28;;;;;;;;;;;10.70;99.90;;;;;;5046400;28;20546;-73
2022/04/30 00:53:55;;;;;;;;;;;10.60;99.90;;;;;;5046530;28;20006;-72
2022/04/30 00:56:23;;;;;;;;;;;10.60;99.90;;;;;;5038155;28;20314;-73
2022/04/30 00:58:50;;;;;;;;;;;10.60;99.90;;;;;;5040551;28;19970;-74
2022/04/30 01:01:18;;;;;;;;;;;10.60;99.90;;;;;;5043489;28;19925;-73
2022/04/30 01:03:46;;;;;;;;;;;10.60;99.90;;;;;;5038732;28;20366;-73
2022/04/30 01:06:13;;;;;;;;;;;10.60;99.90;;;;;;5039646;28;20306;-73
2022/04/30 01:08:40;;;;;;;;;;;10.50;99.90;;;;;;5046413;28;19983;-73
2022/04/30 01:11:07;;;;;;;;;;;10.50;99.90;;;;;;5043583;28;19928;-73
2022/04/30 01:13:34;;;;;;;;;;;10.50;99.90;;;;;;5038858;28;19990;-73
2022/04/30 01:16:02;;;;;;;;;;;10.40;99.90;;;;;;5045165;28;20070;-73
2022/04/30 01:18:29;;;;;;;;;;;10.40;99.90;;;;;;5040951;28;19933;-73
2022/04/30 01:20:58;;;;;;;;;;;10.30;99.90;;;;;;5042805;28;19936;-73
2022/04/30 01:23:26;;;;;;;;;;;10.30;99.90;;;;;;5046252;28;19994;-73
2022/04/30 01:25:53;;;;;;;;;;;10.20;99.90;;;;;;5045914;28;20536;-71
2022/04/30 01:28:20;;;;;;;;;;;10.20;99.90;;;;;;5034083;28;19989;-71
2022/04/30 01:30:47;;;;;;;;;;;10.20;99.90;;;;;;5041954;28;19944;-74
2022/04/30 01:38:48;;;;;;;;;;;9.90;99.90;;;;;;5042979;28;19932;-71
2022/04/30 01:41:15;;;;;;;;;;;9.90;99.90;;;;;;5045193;28;19978;-74
2022/04/30 01:43:42;;;;;;;;;;;9.80;99.90;;;;;;5052070;28;19937;-71
2022/04/30 01:46:08;;;;;;;;;;;9.90;99.90;;;;;;5042684;28;19924;-71
2022/04/30 01:48:35;;;;;;;;;;;9.90;99.90;;;;;;5044367;28;20366;-71
2022/04/30 01:51:02;;;;;;;;;;;9.80;99.90;;;;;;5036841;28;20008;-71
2022/04/30 01:53:30;;;;;;;;;;;9.90;99.90;;;;;;5041487;28;19937;-74
2022/04/30 01:55:59;;;;;;;;;;;9.90;99.90;;;;;;5043266;28;19935;-72
2022/04/30 01:58:25;;;;;;;;;;;9.80;99.90;;;;;;5033007;28;19936;-71
2022/04/30 02:00:52;;;;;;;;;;;9.80;99.90;;;;;;5042038;28;20034;-72
2022/04/30 02:03:19;;;;;;;;;;;9.80;99.90;;;;;;5036613;28;19924;-72
2022/04/30 02:05:46;;;;;;;;;;;9.80;99.90;;;;;;5037367;28;19983;-71
2022/04/30 02:08:13;;;;;;;;;;;9.70;99.90;;;;;;5039846;28;19929;-71
2022/04/30 02:10:41;;;;;;;;;;;9.60;99.90;;;;;;5045122;28;20453;-72
2022/04/30 02:13:09;;;;;;;;;;;9.60;99.90;;;;;;5044114;28;19933;-72
2022/04/30 02:15:37;;;;;;;;;;;9.50;99.90;;;;;;5037866;28;20452;-71
2022/04/30 02:18:04;;;;;;;;;;;9.50;99.90;;;;;;5042652;28;19940;-72
2022/04/30 02:20:33;;;;;;;;;;;9.40;99.90;;;;;;5033417;28;20091;-72
2022/04/30 02:23:01;;;;;;;;;;;9.40;99.90;;;;;;5042395;28;19932;-72
2022/04/30 02:25:28;;;;;;;;;;;9.50;99.90;;;;;;5034171;28;19937;-71
2022/04/30 02:27:55;;;;;;;;;;;9.40;99.90;;;;;;5038915;28;19932;-72
2022/04/30 02:30:24;;;;;;;;;;;9.40;99.90;;;;;;5039947;28;19940;-72
2022/04/30 02:32:51;;;;;;;;;;;9.40;99.90;;;;;;5043612;28;19936;-71
2022/04/30 02:35:19;;;;;;;;;;;9.30;99.90;;;;;;5036893;28;19924;-72
2022/04/30 02:37:45;;;;;;;;;;;9.30;99.90;;;;;;5036217;28;20043;-72
2022/04/30 02:40:13;;;;;;;;;;;9.20;99.90;;;;;;5044758;28;19997;-72
2022/04/30 02:42:40;;;;;;;;;;;9.10;99.90;;;;;;5053634;28;20023;-71
2022/04/30 02:45:08;;;;;;;;;;;9.10;99.90;;;;;;5041634;28;20030;-71
2022/04/30 02:47:35;;;;;;;;;;;9.00;99.90;;;;;;5041000;28;19929;-72
2022/04/30 02:50:02;;;;;;;;;;;8.90;99.90;;;;;;5039098;28;19928;-72
2022/04/30 02:52:29;;;;;;;;;;;8.90;99.90;;;;;;5046947;28;19935;-71
2022/04/30 02:54:55;;;;;;;;;;;8.80;99.90;;;;;;5047754;28;19983;-71
2022/04/30 02:57:22;;;;;;;;;;;8.70;99.90;;;;;;5040785;28;20326;-71
2022/04/30 02:59:53;;;;;;;;;;;8.70;99.90;;;;;;5048644;28;19928;-71
2022/04/30 03:02:20;;;;;;;;;;;8.60;99.90;;;;;;5046038;28;20062;-71
2022/04/30 03:04:51;;;;;;;;;;;8.60;99.90;;;;;;5046738;28;20380;-72
2022/04/30 03:07:18;;;;;;;;;;;8.60;99.90;;;;;;5046991;28;19995;-72
2022/04/30 03:09:44;;;;;;;;;;;8.50;99.90;;;;;;5042322;28;19936;-72
2022/04/30 03:12:11;;;;;;;;;;;8.50;99.90;;;;;;5048701;28;19937;-71
2022/04/30 03:14:38;;;;;;;;;;;8.50;99.90;;;;;;5046695;28;19929;-71
2022/04/30 03:22:34;;;;;;;;;;;8.30;99.90;;;;;;5047906;28;19932;-71
2022/04/30 03:25:00;;;;;;;;;;;8.30;99.90;;;;;;5048041;28;19966;-73
2022/04/30 03:27:27;;;;;;;;;;;8.30;99.90;;;;;;5044756;28;20339;-71
2022/04/30 03:29:53;;;;;;;;;;;8.30;99.90;;;;;;5040678;28;20439;-72
2022/04/30 03:32:20;;;;;;;;;;;8.20;99.90;;;;;;5043351;28;19936;-71
2022/04/30 03:34:47;;;;;;;;;;;8.20;99.90;;;;;;5045479;28;19925;-71
2022/04/30 03:37:15;;;;;;;;;;;8.10;99.90;;;;;;5047971;28;19978;-71
2022/04/30 03:39:41;;;;;;;;;;;8.10;99.90;;;;;;5040977;28;19995;-71
2022/04/30 03:42:08;;;;;;;;;;;8.00;99.90;;;;;;5052532;28;20066;-72
2022/04/30 03:44:35;;;;;;;;;;;7.90;99.90;;;;;;5048046;28;19936;-71
2022/04/30 03:47:01;;;;;;;;;;;7.90;99.90;;;;;;5045974;28;20342;-71
2022/04/30 03:49:28;;;;;;;;;;;7.90;99.90;;;;;;5039048;28;19979;-71
2022/04/30 03:51:55;;;;;;;;;;;8.00;99.90;;;;;;5047951;28;19979;-71
2022/04/30 03:54:23;;;;;;;;;;;7.90;99.90;;;;;;5045713;28;19929;-71
2022/04/30 03:56:49;;;;;;;;;;;7.90;99.90;;;;;;5046372;28;19994;-72
2022/04/30 03:59:16;;;;;;;;;;;7.90;99.90;;;;;;5041844;28;21646;-72
2022/04/30 04:01:42;;;;;;;;;;;7.80;99.90;;;;;;5043480;28;20336;-72
2022/04/30 04:04:09;;;;;;;;;;;7.80;99.90;;;;;;5044362;28;19924;-73
2022/04/30 04:06:36;;;;;;;;;;;7.80;99.90;;;;;;5046866;28;20016;-72
2022/04/30 04:09:02;;;;;;;;;;;7.70;99.90;;;;;;5046900;28;19929;-72
2022/04/30 04:11:30;;;;;;;;;;;7.70;99.90;;;;;;5047067;28;20010;-72
2022/04/30 04:19:28;;;;;;;;;;;7.70;99.90;;;;;;5049732;28;19952;-70
2022/04/30 04:21:56;;;;;;;;;;;7.80;99.90;;;;;;5046880;28;20239;-72
2022/04/30 04:27:08;;;;;;;;;;;7.80;99.90;;;;;;5045477;28;19932;-72
2022/04/30 04:29:35;;;;;;;;;;;7.90;99.90;;;;;;5041170;28;19979;-71
2022/04/30 04:32:02;;;;;;;;;;;7.90;99.90;;;;;;5042900;28;20389;-72
2022/04/30 04:34:28;;;;;;;;;;;8.00;99.90;;;;;;5047887;28;19937;-71
2022/04/30 04:36:54;;;;;;;;;;;8.00;99.90;;;;;;5047756;28;20000;-72
2022/04/30 04:39:21;;;;;;;;;;;8.10;99.90;;;;;;5040403;28;19925;-72
2022/04/30 04:41:48;;;;;;;;;;;8.20;99.90;;;;;;5051174;28;19947;-72
2022/04/30 04:44:15;;;;;;;;;;;8.20;99.90;;;;;;5039865;28;20002;-72
2022/04/30 04:46:42;;;;;;;;;;;8.20;99.90;;;;;;5045808;28;20513;-72
2022/04/30 04:49:09;;;;;;;;;;;8.30;99.90;;;;;;5040032;28;19933;-72
2022/04/30 04:51:35;;;;;;;;;;;8.30;99.90;;;;;;5036840;28;19997;-72
2022/04/30 04:54:03;;;;;;;;;;;8.30;99.90;;;;;;5043003;28;20009;-72
2022/04/30 04:56:29;;;;;;;;;;;8.20;99.90;;;;;;5037125;28;19932;-72
2022/04/30 04:58:56;;;;;;;;;;;8.30;99.90;;;;;;5039154;28;19925;-72
2022/04/30 05:01:24;;;;;;;;;;;8.30;99.90;;;;;;5043941;28;19932;-71
2022/04/30 05:03:50;;;;;;;;;;;8.40;99.90;;;;;;5036542;28;20006;-71
2022/04/30 05:06:17;;;;;;;;;;;8.50;99.90;;;;;;5039208;28;19925;-72
2022/04/30 05:08:44;;;;;;;;;;;8.50;99.90;;;;;;5045374;28;19929;-72
2022/04/30 05:11:10;;;;;;;;;;;8.60;99.90;;;;;;5044638;28;20054;-72
2022/04/30 05:13:36;;;;;;;;;;;8.60;99.90;;;;;;5044538;28;19997;-71
2022/04/30 05:16:03;;;;;;;;;;;8.70;99.90;;;;;;5043573;28;20020;-72
2022/04/30 05:18:31;;;;;;;;;;;8.70;99.90;;;;;;5036350;28;19933;-72
2022/04/30 05:20:57;;;;;;;;;;;8.70;99.90;;;;;;5039017;28;19994;-72
2022/04/30 05:23:24;;;;;;;;;;;8.80;99.90;;;;;;5041517;28;20417;-70
2022/04/30 05:25:50;;;;;;;;;;;8.80;99.90;;;;;;5039601;28;19929;-69
2022/04/30 05:28:17;;;;;;;;;;;8.90;99.90;;;;;;5039259;28;20003;-70
2022/04/30 05:30:43;;;;;;;;;;;8.90;99.90;;;;;;5037855;28;19937;-71
2022/04/30 05:33:10;;;;;;;;;;;8.90;99.90;;;;;;5044672;28;20739;-70
2022/04/30 05:35:38;;;;;;;;;;;8.90;99.90;;;;;;5044898;28;20031;-71
2022/04/30 05:38:04;;;;;;;;;;;9.00;99.90;;;;;;5042449;28;19932;-71
2022/04/30 05:40:31;;;;;;;;;;;9.00;99.90;;;;;;5043305;28;20465;-71
2022/04/30 05:42:57;;;;;;;;;;;9.00;99.90;;;;;;5043558;28;19990;-72
2022/04/30 05:45:24;;;;;;;;;;;9.10;99.90;;;;;;5041352;28;20412;-71
2022/04/30 05:47:51;;;;;;;;;;;9.10;99.90;;;;;;5038447;28;20425;-71
2022/04/30 05:50:18;;;;;;;;;;;9.10;99.90;;;;;;5043518;28;19940;-71
2022/04/30 05:52:45;;;;;;;;;;;9.20;99.90;;;;;;5040903;28;19939;-73
2022/04/30 05:55:12;;;;;;;;;;;9.30;99.90;;;;;;5041445;28;19982;-70
2022/04/30 05:57:39;;;;;;;;;;;9.30;99.90;;;;;;5043514;28;20298;-71
2022/04/30 06:00:06;;;;;;;;;;;9.40;99.90;;;;;;5038909;28;20015;-70
2022/04/30 06:02:32;;;;;;;;;;;9.50;99.90;;;;;;5039649;28;20374;-73
2022/04/30 06:04:59;;;;;;;;;;;9.50;99.90;;;;;;5044144;28;19932;-75
2022/04/30 06:07:25;;;;;;;;;;;9.60;99.90;;;;;;5040665;28;19929;-70
2022/04/30 06:09:53;;;;;;;;;;;9.70;99.90;;;;;;5043287;28;20246;-71
2022/04/30 06:12:21;;;;;;;;;;;9.70;99.90;;;;;;5034039;28;19949;-71
2022/04/30 06:14:48;;;;;;;;;;;9.70;99.90;;;;;;5045018;28;19924;-71
2022/04/30 06:17:14;;;;;;;;;;;9.80;99.90;;;;;;5044250;28;19937;-71
2022/04/30 06:19:41;;;;;;;;;;;9.80;99.90;;;;;;5043381;28;20002;-72
2022/04/30 06:22:08;;;;;;;;;;;9.80;99.90;;;;;;5042387;28;20008;-71
2022/04/30 06:24:34;;;;;;;;;;;9.90;99.90;;;;;;5042703;28;20035;-71
2022/04/30 06:27:02;;;;;;;;;;;9.90;99.90;;;;;;5040641;28;20035;-72
2022/04/30 06:29:29;;;;;;;;;;;9.90;99.90;;;;;;5049031;28;19991;-71
2022/04/30 06:31:56;;;;;;;;;;;10.00;99.90;;;;;;5039031;28;19937;-72
2022/04/30 06:34:23;;;;;;;;;;;10.00;99.90;;;;;;5034404;28;20040;-71
2022/04/30 06:36:49;;;;;;;;;;;10.00;99.90;;;;;;5038653;28;20328;-71
2022/04/30 06:39:16;;;;;;;;;;;9.90;99.90;;;;;;5038269;28;19973;-71
2022/04/30 06:41:42;;;;;;;;;;;9.90;99.90;;;;;;5041939;28;19944;-72
2022/04/30 06:44:10;;;;;;;;;;;10.00;99.90;;;;;;5039366;28;20343;-71
2022/04/30 06:46:37;;;;;;;;;;;10.10;99.90;;;;;;5038044;28;19936;-71
2022/04/30 06:49:04;;;;;;;;;;;10.20;99.90;;;;;;5042769;28;19924;-71
2022/04/30 06:51:30;;;;;;;;;;;10.30;99.90;;;;;;5043656;28;20030;-71
2022/04/30 06:59:28;;;;;;;;;;;10.60;99.90;;;;;;5040296;28;19959;-72
2022/04/30 07:02:00;;;;;;;;;;;10.70;99.90;;;;;;5037941;28;20020;-72
2022/04/30 07:04:26;;;;;;;;;;;10.80;99.90;;;;;;5043929;28;19924;-72
2022/04/30 07:06:53;;;;;;;;;;;10.80;99.90;;;;;;5039163;28;19933;-73
2022/04/30 07:09:19;;;;;;;;;;;11.00;99.90;;;;;;5044082;28;19925;-73
2022/04/30 07:11:46;;;;;;;;;;;11.10;99.90;;;;;;5042143;28;19955;-74
2022/04/30 07:14:13;;;;;;;;;;;11.00;99.90;;;;;;5039515;28;19933;-74
2022/04/30 07:16:42;;;;;;;;;;;11.00;99.90;;;;;;5042036;28;19979;-73
2022/04/30 07:19:08;;;;;;;;;;;11.20;99.90;;;;;;5039081;28;20374;-73
2022/04/30 07:21:35;;;;;;;;;;;11.40;99.90;;;;;;5032695;28;19929;-72
2022/04/30 07:24:01;;;;;;;;;;;11.50;99.90;;;;;;5041551;28;20002;-71
2022/04/30 07:26:28;;;;;;;;;;;11.70;99.90;;;;;;5041424;28;19932;-71
2022/04/30 07:28:55;;;;;;;;;;;11.80;99.90;;;;;;5049915;28;19943;-71
2022/04/30 07:31:22;;;;;;;;;;;11.90;99.90;;;;;;5035685;28;20319;-71
2022/04/30 07:33:51;;;;;;;;;;;11.90;99.90;;;;;;5031839;28;19995;-71
2022/04/30 07:36:18;;;;;;;;;;;11.90;99.90;;;;;;5039867;28;19941;-70
2022/04/30 07:38:45;;;;;;;;;;;11.90;99.90;;;;;;5045434;28;19979;-71
2022/04/30 07:41:11;;;;;;;;;;;11.80;99.90;;;;;;5047221;28;20023;-71
2022/04/30 07:43:38;;;;;;;;;;;11.90;99.90;;;;;;5051117;28;20032;-71
2022/04/30 07:46:04;;;;;;;;;;;12.00;99.90;;;;;;5048195;28;19929;-71
2022/04/30 07:48:31;;;;;;;;;;;12.10;99.90;;;;;;5041287;28;20390;-70
2022/04/30 07:51:00;;;;;;;;;;;12.30;99.90;;;;;;5046579;28;19978;-71
2022/04/30 07:53:26;;;;;;;;;;;12.60;99.90;;;;;;5046621;28;19925;-71
2022/04/30 07:55:54;;;;;;;;;;;13.10;99.90;;;;;;5043042;28;19950;-74
2022/04/30 07:58:21;;;;;;;;;;;13.60;99.90;;;;;;5047025;28;19947;-75
2022/04/30 08:00:47;;;;;;;;;;;14.20;99.90;;;;;;5047556;28;19932;-75
2022/04/30 08:03:14;;;;;;;;;;;14.60;99.90;;;;;;5047623;28;19932;-75
2022/04/30 08:05:40;;;;;;;;;;;15.10;99.90;;;;;;5049166;28;19925;-73
2022/04/30 08:08:08;;;;;;;;;;;15.40;99.90;;;;;;5040852;28;20041;-72
2022/04/30 08:10:35;;;;;;;;;;;15.50;99.90;;;;;;5044471;28;20338;-75
2022/04/30 08:13:01;;;;;;;;;;;15.40;99.90;;;;;;5039385;28;19937;-75
2022/04/30 08:15:28;;;;;;;;;;;15.10;99.90;;;;;;5040926;28;19925;-75
2022/04/30 08:17:55;;;;;;;;;;;14.70;99.90;;;;;;5046438;28;19958;-74
2022/04/30 08:20:21;;;;;;;;;;;14.40;99.90;;;;;;5043362;28;20020;-75
2022/04/30 08:22:48;;;;;;;;;;;14.00;99.90;;;;;;5039711;28;20317;-74
2022/04/30 08:25:16;;;;;;;;;;;13.80;99.90;;;;;;5040891;28;20006;-75
2022/04/30 08:27:42;;;;;;;;;;;13.60;99.90;;;;;;5042517;28;19933;-75
2022/04/30 08:30:10;;;;;;;;;;;13.50;99.90;;;;;;5044593;28;19944;-74
2022/04/30 08:32:37;;;;;;;;;;;13.40;99.90;;;;;;5051257;28;19955;-75
2022/04/30 08:35:03;;;;;;;;;;;13.50;99.90;;;;;;5043980;28;19968;-75
2022/04/30 08:37:30;;;;;;;;;;;13.80;99.90;;;;;;5034246;28;20313;-74
2022/04/30 08:39:57;;;;;;;;;;;14.10;99.90;;;;;;5047921;28;20025;-74
2022/04/30 08:42:25;;;;;;;;;;;14.50;99.90;;;;;;5047639;28;19952;-74
2022/04/30 08:44:51;;;;;;;;;;;14.90;99.90;;;;;;5047559;28;19945;-74
2022/04/30 08:47:18;;;;;;;;;;;15.30;99.90;;;;;;5041981;28;20286;-74
2022/04/30 08:49:44;;;;;;;;;;;15.80;99.90;;;;;;5046670;28;19932;-74
2022/04/30 08:52:12;;;;;;;;;;;16.20;99.90;;;;;;5038738;28;20548;-74
2022/04/30 08:54:38;;;;;;;;;;;16.60;99.90;;;;;;5039265;28;20094;-74
2022/04/30 08:57:05;;;;;;;;;;;16.80;99.90;;;;;;5045279;28;19966;-74
2022/04/30 08:59:33;;;;;;;;;;;16.60;99.90;;;;;;5041488;28;20023;-75
2022/04/30 09:02:01;;;;;;;;;;;16.10;99.90;;;;;;5043711;28;19932;-74
2022/04/30 09:04:41;;;;;;;;;;;15.60;99.90;;;;;;5038171;28;19929;-74
2022/04/30 09:07:12;;;;;;;;;;;15.30;99.90;;;;;;5036852;28;19966;-74
2022/04/30 09:09:38;;;;;;;;;;;15.30;99.90;;;;;;5042486;28;19924;-74
2022/04/30 09:12:06;;;;;;;;;;;15.00;99.90;;;;;;5043037;28;19928;-74
2022/04/30 09:14:34;;;;;;;;;;;14.70;99.90;;;;;;5044929;28;19943;-74
2022/04/30 09:17:01;;;;;;;;;;;14.60;99.90;;;;;;5044922;28;19991;-74
2022/04/30 09:19:28;;;;;;;;;;;14.80;99.90;;;;;;5041407;28;20383;-73
2022/04/30 09:21:54;;;;;;;;;;;15.20;99.90;;;;;;5043538;28;19991;-75
2022/04/30 09:24:21;;;;;;;;;;;15.40;99.90;;;;;;5043232;28;20161;-74
2022/04/30 09:26:48;;;;;;;;;;;15.50;99.90;;;;;;5042659;28;20348;-74
2022/04/30 09:29:24;;;;;;;;;;;15.50;99.90;;;;;;5039512;28;20398;-74
2022/04/30 09:31:52;;;;;;;;;;;15.20;99.90;;;;;;5045968;28;19925;-74
2022/04/30 09:39:48;;;;;;;;;;;16.10;99.90;;;;;;5044947;28;19978;-74
2022/04/30 09:42:14;;;;;;;;;;;16.80;99.90;;;;;;5042825;28;19951;-74
2022/04/30 09:44:41;;;;;;;;;;;17.30;99.90;;;;;;5038060;28;19936;-74
2022/04/30 09:47:09;;;;;;;;;;;17.70;99.90;;;;;;5043348;28;19973;-74
2022/04/30 09:55:05;;;;;;;;;;;18.20;99.90;;;;;;5035358;28;19932;-73
2022/04/30 09:57:33;;;;;;;;;;;18.20;99.90;;;;;;5036328;28;19963;-73
2022/04/30 10:00:00;;;;;;;;;;;18.40;99.90;;;;;;5039256;28;20011;-73
2022/04/30 10:02:29;;;;;;;;;;;18.60;99.90;;;;;;5043664;28;19932;-73
2022/04/30 10:04:55;;;;;;;;;;;18.70;99.90;;;;;;5045524;28;19929;-73
2022/04/30 10:07:24;;;;;;;;;;;18.70;99.90;;;;;;5040350;28;19982;-73
2022/04/30 10:09:54;;;;;;;;;;;18.60;99.70;;;;;;5042638;28;20345;-73
2022/04/30 10:12:23;;;;;;;;;;;18.10;99.10;;;;;;5039112;28;19932;-73
2022/04/30 10:14:53;;;;;;;;;;;17.60;99.80;;;;;;5038967;28;20461;-74
2022/04/30 10:17:23;;;;;;;;;;;17.50;99.90;;;;;;5043018;28;19986;-73
2022/04/30 10:20:04;;;;;;;;;;;17.60;99.90;;;;;;5038145;28;19940;-73
2022/04/30 10:22:31;;;;;;;;;;;17.70;99.90;;;;;;5043762;28;19936;-73
2022/04/30 10:24:58;;;;;;;;;;;17.90;99.90;;;;;;5044084;28;19925;-73
2022/04/30 10:27:25;;;;;;;;;;;18.30;99.90;;;;;;5042379;28;19945;-73
2022/04/30 10:29:56;;;;;;;;;;;18.80;99.90;;;;;;5037207;28;20041;-73
2022/04/30 10:32:29;;;;;;;;;;;19.20;99.20;;;;;;5039673;28;20648;-79
2022/04/30 10:34:56;;;;;;;;;;;19.30;97.90;;;;;;5047487;28;19933;-72
2022/04/30 10:37:34;;;;;;;;;;;19.40;97.70;;;;;;5043376;28;20581;-72
2022/04/30 10:40:01;;;;;;;;;;;19.60;97.90;;;;;;5039801;28;20000;-73
2022/04/30 10:42:29;;;;;;;;;;;19.50;96.80;;;;;;5040589;28;19994;-69
2022/04/30 10:44:56;;;;;;;;;;;19.40;97.30;;;;;;5038016;28;20027;-71
2022/04/30 10:47:22;;;;;;;;;;;19.60;98.80;;;;;;5042231;28;20015;-72
2022/04/30 10:49:49;;;;;;;;;;;20.00;98.50;;;;;;5039533;28;20002;-73
2022/04/30 10:52:21;;;;;;;;;;;20.20;96.70;;;;;;5040236;28;20004;-72
2022/04/30 10:54:50;;;;;;;;;;;20.10;95.40;;;;;;5033723;28;19951;-71
2022/04/30 10:57:16;;;;;;;;;;;19.60;95.00;;;;;;5034381;28;19925;-71
2022/04/30 10:59:43;;;;;;;;;;;19.20;95.60;;;;;;5035386;28;20406;-72
2022/04/30 11:02:11;;;;;;;;;;;19.10;96.60;;;;;;5037428;28;19933;-71
2022/04/30 11:04:38;;;;;;;;;;;19.30;97.00;;;;;;5031836;28;19932;-69
2022/04/30 11:07:05;;;;;;;;;;;19.40;96.40;;;;;;5034938;28;20046;-72
2022/04/30 11:09:33;;;;;;;;;;;19.80;97.10;;;;;;5038251;28;19936;-70
2022/04/30 11:12:01;;;;;;;;;;;20.50;96.40;;;;;;5045040;28;19928;-71
2022/04/30 11:14:28;;;;;;;;;;;20.80;96.20;;;;;;5041851;28;20328;-70
2022/04/30 11:16:55;;;;;;;;;;;20.80;96.40;;;;;;5041292;28;19933;-71
2022/04/30 11:19:23;;;;;;;;;;;20.70;95.80;;;;;;5049236;28;20431;-70
2022/04/30 11:21:50;;;;;;;;;;;20.80;94.60;;;;;;5046479;28;20013;-70
2022/04/30 11:24:24;;;;;;;;;;;20.80;93.90;;;;;;5038137;28;19966;-67
2022/04/30 11:26:53;;;;;;;;;;;20.60;94.40;;;;;;5047151;28;19947;-68
2022/04/30 11:29:21;;;;;;;;;;;20.40;95.20;;;;;;5045344;28;20007;-67
2022/04/30 11:31:50;;;;;;;;;;;20.30;94.40;;;;;;5045160;28;19973;-69
2022/04/30 11:34:18;;;;;;;;;;;20.30;94.70;;;;;;5042731;28;20167;-68
2022/04/30 11:36:45;;;;;;;;;;;20.60;93.30;;;;;;5045216;28;19972;-68
2022/04/30 11:39:12;;;;;;;;;;;21.00;94.20;;;;;;5044158;28;19929;-68
2022/04/30 11:41:39;;;;;;;;;;;21.30;93.50;;;;;;5041348;28;19925;-70
2022/04/30 11:44:06;;;;;;;;;;;21.30;93.10;;;;;;5045861;28;20015;-70
2022/04/30 11:46:37;;;;;;;;;;;21.00;92.00;;;;;;5045433;28;20578;-70
2022/04/30 11:49:11;;;;;;;;;;;20.70;92.40;;;;;;5044395;28;20351;-70
2022/04/30 11:51:37;;;;;;;;;;;20.60;91.90;;;;;;5032958;28;19959;-67
2022/04/30 11:54:07;;;;;;;;;;;20.50;91.50;;;;;;5045186;28;19963;-74
2022/04/30 11:56:34;;;;;;;;;;;20.50;92.10;;;;;;5044829;28;19982;-73
2022/04/30 11:59:01;;;;;;;;;;;20.60;92.50;;;;;;5038389;28;19928;-72
2022/04/30 12:01:30;;;;;;;;;;;20.30;91.30;;;;;;5045647;28;19936;-72
2022/04/30 12:03:59;;;;;;;;;;;20.00;91.60;;;;;;5044640;28;19928;-73
2022/04/30 12:06:26;;;;;;;;;;;20.20;92.80;;;;;;5047071;28;19987;-75
2022/04/30 12:08:53;;;;;;;;;;;20.60;92.80;;;;;;5045669;28;20027;-72
2022/04/30 12:11:20;;;;;;;;;;;21.20;91.80;;;;;;5045837;28;19925;-70
2022/04/30 12:13:56;;;;;;;;;;;21.70;91.10;;;;;;5041263;28;20340;-69
2022/04/30 12:16:23;;;;;;;;;;;21.80;90.80;;;;;;5042572;28;19973;-71
2022/04/30 12:24:43;;;;;;;;;;;22.00;89.10;;;;;;5036938;28;19948;-71
2022/04/30 12:27:10;;;;;;;;;;;21.70;88.30;;;;;;5043725;28;19925;-69
2022/04/30 12:29:37;;;;;;;;;;;21.30;87.90;;;;;;5042526;28;19998;-69
2022/04/30 12:32:04;;;;;;;;;;;21.10;87.40;;;;;;5043243;28;19936;-70
2022/04/30 12:34:37;;;;;;;;;;;20.90;89.40;;;;;;5045119;28;19925;-69
2022/04/30 12:37:05;;;;;;;;;;;21.10;87.40;;;;;;5041252;28;19933;-71
2022/04/30 12:39:32;;;;;;;;;;;21.40;86.40;;;;;;5037497;28;19924;-71
2022/04/30 12:41:58;;;;;;;;;;;21.70;86.90;;;;;;5046927;28;19940;-71
2022/04/30 12:44:25;;;;;;;;;;;21.80;84.70;;;;;;5041412;28;19932;-71
2022/04/30 12:46:51;;;;;;;;;;;21.50;86.00;;;;;;5041554;28;20477;-70
2022/04/30 12:49:18;;;;;;;;;;;21.40;84.70;;;;;;5043131;28;20413;-70
2022/04/30 12:51:45;;;;;;;;;;;21.20;82.20;;;;;;5045557;28;20020;-71
2022/04/30 12:54:13;;;;;;;;;;;21.00;85.20;;;;;;5043374;28;20405;-71
2022/04/30 12:56:40;;;;;;;;;;;20.60;83.00;;;;;;5040603;28;19925;-69
2022/04/30 12:59:06;;;;;;;;;;;20.90;85.60;;;;;;5038211;28;19933;-71
2022/04/30 13:01:34;;;;;;;;;;;21.10;84.90;;;;;;5045794;28;19997;-69
2022/04/30 13:04:01;;;;;;;;;;;21.00;84.50;;;;;;5042137;28;19994;-69
2022/04/30 13:06:27;;;;;;;;;;;21.00;84.20;;;;;;5044444;28;20019;-69
2022/04/30 13:14:24;;;;;;;;;;;22.60;82.70;;;;;;5042982;28;19932;-69
2022/04/30 13:16:50;;;;;;;;;;;22.70;80.30;;;;;;5044195;28;19990;-69
2022/04/30 13:19:17;;;;;;;;;;;22.40;82.00;;;;;;5032012;28;19931;-70
2022/04/30 13:21:46;;;;;;;;;;;21.90;80.20;;;;;;5044751;28;20366;-70
2022/04/30 13:24:13;;;;;;;;;;;21.40;81.30;;;;;;5035629;28;20023;-72
2022/04/30 13:26:41;;;;;;;;;;;20.90;83.50;;;;;;5045305;28;19925;-70
2022/04/30 13:29:10;;;;;;;;;;;20.70;83.90;;;;;;5038861;28;20385;-68
2022/04/30 13:31:37;;;;;;;;;;;21.10;82.60;;;;;;5038763;28;20032;-69
2022/04/30 13:34:03;;;;;;;;;;;21.60;82.30;;;;;;5040325;28;19932;-68
2022/04/30 13:36:32;;;;;;;;;;;22.20;82.10;;;;;;5042986;28;20004;-69
2022/04/30 13:38:59;;;;;;;;;;;22.90;81.70;;;;;;5035928;28;19945;-70
2022/04/30 13:41:26;;;;;;;;;;;23.30;81.30;;;;;;5043239;28;19928;-68
2022/04/30 13:43:54;;;;;;;;;;;23.30;80.40;;;;;;5037511;28;19962;-69
2022/04/30 13:46:21;;;;;;;;;;;23.00;81.50;;;;;;5038057;28;20024;-70
2022/04/30 13:48:49;;;;;;;;;;;23.20;81.10;;;;;;5040128;28;20019;-70
2022/04/30 13:51:15;;;;;;;;;;;23.80;80.80;;;;;;5045581;28;19945;-70
2022/04/30 13:53:42;;;;;;;;;;;23.70;76.80;;;;;;5045495;28;20411;-70
2022/04/30 13:56:09;;;;;;;;;;;23.70;77.00;;;;;;5035910;28;20471;-70
2022/04/30 13:58:35;;;;;;;;;;;24.00;79.90;;;;;;5039935;28;20023;-70
2022/04/30 14:01:03;;;;;;;;;;;24.50;78.20;;;;;;5042807;28;20000;-68
2022/04/30 14:03:30;;;;;;;;;;;24.70;76.70;;;;;;5040361;28;20002;-71
2022/04/30 14:05:57;;;;;;;;;;;24.40;75.10;;;;;;5044156;28;20400;-69
2022/04/30 14:08:24;;;;;;;;;;;24.00;75.80;;;;;;5038107;28;19939;-71
2022/04/30 14:10:50;;;;;;;;;;;23.70;74.90;;;;;;5041768;28;19993;-71
2022/04/30 14:16:01;;;;;;;;;;;22.60;77.20;;;;;;5040718;28;20087;-70
2022/04/30 14:18:29;;;;;;;;;;;21.70;75.00;;;;;;5032836;28;20369;-67
2022/04/30 14:20:57;;;;;;;;;;;21.00;77.60;;;;;;5042567;28;20272;-66
2022/04/30 14:23:23;;;;;;;;;;;20.50;77.60;;;;;;5041717;28;19935;-69
2022/04/30 14:25:50;;;;;;;;;;;20.90;77.40;;;;;;5036836;28;20041;-70
2022/04/30 14:28:18;;;;;;;;;;;22.00;75.30;;;;;;5038633;28;20350;-66
2022/04/30 14:30:45;;;;;;;;;;;23.30;74.30;;;;;;5036957;28;20371;-65
2022/04/30 14:33:12;;;;;;;;;;;24.70;72.70;;;;;;5066366;22;19944;-69
2022/04/30 14:35:41;;;;;;;;;;;25.80;73.00;;;;;;5080183;28;20335;-68
2022/04/30 14:38:08;;;;;;;;;;;26.90;73.40;;;;;;5085192;28;19924;-68
2022/04/30 14:40:35;;;;;;;;;;;28.00;70.10;;;;;;5076594;28;19932;-69
2022/04/30 14:43:02;;;;;;;;;;;29.00;67.90;;;;;;5077376;28;19932;-67
2022/04/30 14:45:28;;;;;;;;;;;29.70;65.30;;;;;;5082470;28;19928;-69
2022/04/30 14:47:55;;;;;;;;;;;30.30;63.60;;;;;;5073970;28;19928;-67
2022/04/30 14:50:21;;;;;;;;;;;30.80;61.90;;;;;;5081709;28;19985;-69
2022/04/30 14:52:49;;;;;;;;;;;30.30;60.00;;;;;;5084179;28;20310;-69
2022/04/30 14:55:16;;;;;;;;;;;29.30;59.40;;;;;;5081914;28;19941;-68
2022/04/30 14:57:42;;;;;;;;;;;29.40;57.50;;;;;;5080798;28;19925;-70
2022/04/30 15:00:09;;;;;;;;;;;29.70;59.20;;;;;;5077471;28;19928;-70
2022/04/30 15:02:36;;;;;;;;;;;30.00;58.10;;;;;;5080498;28;19932;-69
2022/04/30 15:05:02;;;;;;;;;;;30.60;57.10;;;;;;5078680;28;20573;-69
2022/04/30 15:07:29;;;;;;;;;;;31.20;55.90;;;;;;5074743;28;20375;-70
2022/04/30 15:09:57;;;;;;;;;;;31.50;53.60;;;;;;5071315;28;19933;-68
2022/04/30 15:12:23;;;;;;;;;;;31.80;53.60;;;;;;5074462;28;19928;-73